Philipp, Mississippi
Current Conditions -  °F | °C
As of 11:53 PM on Wednesday 22 Oct 2014 (Local Time) from KGWO Reporting Station
Clear Clear  
Wind Chill: 47°   Ceiling: Unl
Heat Index: 47°   Visibility: 10mi
Dew Point: 45°   Wind: 3mph
Humidity: 93%   Direction: 40°NE
Pressure: 30.15"   Gusts: NA
Location:  33.76°N, 90.2°W
Report Text: KGWO 230453Z AUTO 04003KT 10SM CLR 08/07 A3015 RMK AO2 SLPNO T00830072 TSNO
Loading
Personal Weather Stations






























Interactive Weather Map
Tropical Storm Tracking
New forecast layout! Learn more

10-Day Weather Forecast

Advertisements
Track Severe Weather on mobile